sensor_id;sensor_type;location;lat;lon;timestamp;P1;durP1;ratioP1;P2;durP2;ratioP2
58697;SDS011;44475;53.206;-6.106;2024-02-21T00:02:19;5.95;;;3.08;;
58697;SDS011;44475;53.206;-6.106;2024-02-21T00:04:46;6.80;;;3.42;;
58697;SDS011;44475;53.206;-6.106;2024-02-21T00:07:12;7.97;;;3.30;;
58697;SDS011;44475;53.206;-6.106;2024-02-21T00:09:38;10.52;;;3.17;;
58697;SDS011;44475;53.206;-6.106;2024-02-21T00:12:04;8.70;;;3.30;;
58697;SDS011;44475;53.206;-6.106;2024-02-21T00:14:30;5.95;;;3.28;;
58697;SDS011;44475;53.206;-6.106;2024-02-21T00:16:56;7.82;;;3.20;;
58697;SDS011;44475;53.206;-6.106;2024-02-21T00:19:23;5.78;;;2.78;;
58697;SDS011;44475;53.206;-6.106;2024-02-21T00:21:49;6.57;;;2.90;;
58697;SDS011;44475;53.206;-6.106;2024-02-21T00:24:15;6.90;;;3.00;;
58697;SDS011;44475;53.206;-6.106;2024-02-21T00:26:41;5.68;;;2.75;;
58697;SDS011;44475;53.206;-6.106;2024-02-21T00:29:07;6.40;;;2.80;;
58697;SDS011;44475;53.206;-6.106;2024-02-21T00:31:34;5.75;;;2.78;;
58697;SDS011;44475;53.206;-6.106;2024-02-21T00:34:00;4.97;;;2.72;;
58697;SDS011;44475;53.206;-6.106;2024-02-21T00:36:26;4.70;;;2.53;;
58697;SDS011;44475;53.206;-6.106;2024-02-21T00:38:52;5.65;;;2.97;;
58697;SDS011;44475;53.206;-6.106;2024-02-21T00:41:18;6.53;;;2.60;;
58697;SDS011;44475;53.206;-6.106;2024-02-21T00:43:44;6.45;;;2.90;;
58697;SDS011;44475;53.206;-6.106;2024-02-21T00:46:10;4.97;;;2.60;;
58697;SDS011;44475;53.206;-6.106;2024-02-21T00:48:37;5.28;;;2.33;;
58697;SDS011;44475;53.206;-6.106;2024-02-21T00:51:03;5.80;;;2.60;;
58697;SDS011;44475;53.206;-6.106;2024-02-21T00:53:29;6.95;;;2.60;;
58697;SDS011;44475;53.206;-6.106;2024-02-21T00:55:55;7.13;;;2.55;;
58697;SDS011;44475;53.206;-6.106;2024-02-21T00:58:22;5.15;;;2.40;;
58697;SDS011;44475;53.206;-6.106;2024-02-21T01:00:48;4.82;;;2.40;;
58697;SDS011;44475;53.206;-6.106;2024-02-21T01:03:15;5.97;;;2.58;;
58697;SDS011;44475;53.206;-6.106;2024-02-21T01:05:41;6.03;;;2.47;;
58697;SDS011;44475;53.206;-6.106;2024-02-21T01:08:07;8.07;;;2.55;;
58697;SDS011;44475;53.206;-6.106;2024-02-21T01:10:33;4.63;;;2.20;;
58697;SDS011;44475;53.206;-6.106;2024-02-21T01:12:59;5.88;;;2.40;;
58697;SDS011;44475;53.206;-6.106;2024-02-21T01:15:25;4.97;;;2.40;;
58697;SDS011;44475;53.206;-6.106;2024-02-21T01:17:51;4.70;;;2.40;;
58697;SDS011;44475;53.206;-6.106;2024-02-21T01:20:20;4.50;;;2.08;;
58697;SDS011;44475;53.206;-6.106;2024-02-21T01:22:46;4.60;;;2.30;;
58697;SDS011;44475;53.206;-6.106;2024-02-21T01:25:12;3.25;;;2.03;;
58697;SDS011;44475;53.206;-6.106;2024-02-21T01:27:38;4.18;;;2.25;;
58697;SDS011;44475;53.206;-6.106;2024-02-21T01:30:05;3.85;;;2.00;;
58697;SDS011;44475;53.206;-6.106;2024-02-21T01:32:31;3.38;;;2.08;;
58697;SDS011;44475;53.206;-6.106;2024-02-21T01:34:57;3.92;;;2.10;;
58697;SDS011;44475;53.206;-6.106;2024-02-21T01:37:24;4.57;;;2.10;;
58697;SDS011;44475;53.206;-6.106;2024-02-21T01:39:50;4.90;;;2.13;;
58697;SDS011;44475;53.206;-6.106;2024-02-21T01:42:16;4.45;;;2.17;;
58697;SDS011;44475;53.206;-6.106;2024-02-21T01:44:42;6.40;;;2.20;;
58697;SDS011;44475;53.206;-6.106;2024-02-21T01:47:08;3.42;;;1.90;;
58697;SDS011;44475;53.206;-6.106;2024-02-21T01:49:34;5.40;;;2.10;;
58697;SDS011;44475;53.206;-6.106;2024-02-21T01:52:01;3.90;;;2.30;;
58697;SDS011;44475;53.206;-6.106;2024-02-21T01:54:28;4.30;;;2.00;;
58697;SDS011;44475;53.206;-6.106;2024-02-21T01:56:54;4.97;;;2.20;;
58697;SDS011;44475;53.206;-6.106;2024-02-21T01:59:21;3.35;;;2.08;;
58697;SDS011;44475;53.206;-6.106;2024-02-21T02:01:47;4.68;;;2.00;;
58697;SDS011;44475;53.206;-6.106;2024-02-21T02:04:13;3.45;;;2.10;;
58697;SDS011;44475;53.206;-6.106;2024-02-21T02:06:40;3.17;;;2.00;;
58697;SDS011;44475;53.206;-6.106;2024-02-21T02:09:06;3.70;;;1.92;;
58697;SDS011;44475;53.206;-6.106;2024-02-21T02:11:32;3.90;;;2.00;;
58697;SDS011;44475;53.206;-6.106;2024-02-21T02:13:59;3.40;;;2.00;;
58697;SDS011;44475;53.206;-6.106;2024-02-21T02:16:25;4.40;;;2.20;;
58697;SDS011;44475;53.206;-6.106;2024-02-21T02:18:51;3.53;;;1.83;;
58697;SDS011;44475;53.206;-6.106;2024-02-21T02:21:23;3.95;;;2.10;;
58697;SDS011;44475;53.206;-6.106;2024-02-21T02:23:49;3.33;;;1.90;;
58697;SDS011;44475;53.206;-6.106;2024-02-21T02:26:15;2.33;;;1.80;;
58697;SDS011;44475;53.206;-6.106;2024-02-21T02:28:41;4.30;;;1.90;;
58697;SDS011;44475;53.206;-6.106;2024-02-21T02:31:07;2.45;;;1.80;;
58697;SDS011;44475;53.206;-6.106;2024-02-21T02:33:33;3.88;;;1.70;;
58697;SDS011;44475;53.206;-6.106;2024-02-21T02:36:00;2.90;;;1.70;;
58697;SDS011;44475;53.206;-6.106;2024-02-21T02:38:26;3.10;;;1.80;;
58697;SDS011;44475;53.206;-6.106;2024-02-21T02:40:52;2.42;;;1.60;;
58697;SDS011;44475;53.206;-6.106;2024-02-21T02:43:18;2.53;;;1.70;;
58697;SDS011;44475;53.206;-6.106;2024-02-21T02:45:44;2.28;;;1.60;;
58697;SDS011;44475;53.206;-6.106;2024-02-21T02:48:10;2.03;;;1.63;;
58697;SDS011;44475;53.206;-6.106;2024-02-21T02:50:36;2.60;;;1.60;;
58697;SDS011;44475;53.206;-6.106;2024-02-21T02:53:02;5.75;;;1.80;;
58697;SDS011;44475;53.206;-6.106;2024-02-21T02:55:29;2.38;;;1.73;;
58697;SDS011;44475;53.206;-6.106;2024-02-21T02:57:55;2.17;;;1.50;;
58697;SDS011;44475;53.206;-6.106;2024-02-21T03:00:22;2.08;;;1.52;;
58697;SDS011;44475;53.206;-6.106;2024-02-21T03:02:48;2.85;;;1.60;;
58697;SDS011;44475;53.206;-6.106;2024-02-21T03:05:15;3.33;;;1.67;;
58697;SDS011;44475;53.206;-6.106;2024-02-21T03:07:42;2.33;;;1.63;;
58697;SDS011;44475;53.206;-6.106;2024-02-21T03:10:08;1.88;;;1.50;;
58697;SDS011;44475;53.206;-6.106;2024-02-21T03:12:35;2.33;;;1.52;;
58697;SDS011;44475;53.206;-6.106;2024-02-21T03:15:01;3.17;;;1.70;;
58697;SDS011;44475;53.206;-6.106;2024-02-21T03:17:27;2.65;;;1.52;;
58697;SDS011;44475;53.206;-6.106;2024-02-21T03:19:54;2.08;;;1.50;;
58697;SDS011;44475;53.206;-6.106;2024-02-21T03:22:25;1.75;;;1.50;;
58697;SDS011;44475;53.206;-6.106;2024-02-21T03:24:51;2.38;;;1.60;;
58697;SDS011;44475;53.206;-6.106;2024-02-21T03:27:17;1.90;;;1.40;;
58697;SDS011;44475;53.206;-6.106;2024-02-21T03:29:43;1.88;;;1.50;;
58697;SDS011;44475;53.206;-6.106;2024-02-21T03:32:09;2.90;;;1.60;;
58697;SDS011;44475;53.206;-6.106;2024-02-21T03:34:35;1.63;;;1.33;;
58697;SDS011;44475;53.206;-6.106;2024-02-21T03:37:01;1.80;;;1.40;;
58697;SDS011;44475;53.206;-6.106;2024-02-21T03:39:30;2.05;;;1.60;;
58697;SDS011;44475;53.206;-6.106;2024-02-21T03:41:57;2.50;;;1.40;;
58697;SDS011;44475;53.206;-6.106;2024-02-21T03:44:25;1.55;;;1.33;;
58697;SDS011;44475;53.206;-6.106;2024-02-21T03:46:52;3.00;;;1.50;;
58697;SDS011;44475;53.206;-6.106;2024-02-21T03:49:18;1.77;;;1.40;;
58697;SDS011;44475;53.206;-6.106;2024-02-21T03:51:44;2.00;;;1.45;;
58697;SDS011;44475;53.206;-6.106;2024-02-21T03:54:11;1.90;;;1.40;;
58697;SDS011;44475;53.206;-6.106;2024-02-21T03:56:37;2.15;;;1.50;;
58697;SDS011;44475;53.206;-6.106;2024-02-21T03:59:05;1.90;;;1.40;;
58697;SDS011;44475;53.206;-6.106;2024-02-21T04:01:31;2.40;;;1.50;;
58697;SDS011;44475;53.206;-6.106;2024-02-21T04:03:57;2.92;;;1.55;;
58697;SDS011;44475;53.206;-6.106;2024-02-21T04:06:24;1.65;;;1.40;;
58697;SDS011;44475;53.206;-6.106;2024-02-21T04:08:50;1.85;;;1.42;;
58697;SDS011;44475;53.206;-6.106;2024-02-21T04:11:16;2.58;;;1.55;;
58697;SDS011;44475;53.206;-6.106;2024-02-21T04:13:44;4.63;;;1.55;;
58697;SDS011;44475;53.206;-6.106;2024-02-21T04:16:10;2.25;;;1.75;;
58697;SDS011;44475;53.206;-6.106;2024-02-21T04:18:36;1.95;;;1.30;;
58697;SDS011;44475;53.206;-6.106;2024-02-21T04:21:02;2.83;;;1.50;;
58697;SDS011;44475;53.206;-6.106;2024-02-21T04:23:28;1.75;;;1.30;;
58697;SDS011;44475;53.206;-6.106;2024-02-21T04:25:55;1.70;;;1.40;;
58697;SDS011;44475;53.206;-6.106;2024-02-21T04:28:21;2.03;;;1.45;;
58697;SDS011;44475;53.206;-6.106;2024-02-21T04:30:47;2.10;;;1.40;;
58697;SDS011;44475;53.206;-6.106;2024-02-21T04:33:13;2.03;;;1.40;;
58697;SDS011;44475;53.206;-6.106;2024-02-21T04:35:39;2.30;;;1.40;;
58697;SDS011;44475;53.206;-6.106;2024-02-21T04:38:05;1.67;;;1.30;;
58697;SDS011;44475;53.206;-6.106;2024-02-21T04:40:31;1.95;;;1.42;;
58697;SDS011;44475;53.206;-6.106;2024-02-21T04:42:57;1.48;;;1.35;;
58697;SDS011;44475;53.206;-6.106;2024-02-21T04:45:24;1.67;;;1.38;;
58697;SDS011;44475;53.206;-6.106;2024-02-21T04:47:50;2.42;;;1.50;;
58697;SDS011;44475;53.206;-6.106;2024-02-21T04:50:16;2.22;;;1.40;;
58697;SDS011;44475;53.206;-6.106;2024-02-21T04:52:42;1.70;;;1.20;;
58697;SDS011;44475;53.206;-6.106;2024-02-21T04:55:08;3.22;;;1.38;;
58697;SDS011;44475;53.206;-6.106;2024-02-21T04:57:35;1.52;;;1.30;;
58697;SDS011;44475;53.206;-6.106;2024-02-21T05:00:01;1.20;;;1.10;;
58697;SDS011;44475;53.206;-6.106;2024-02-21T05:02:28;1.27;;;1.15;;
58697;SDS011;44475;53.206;-6.106;2024-02-21T05:04:55;1.85;;;1.40;;
58697;SDS011;44475;53.206;-6.106;2024-02-21T05:07:21;1.75;;;1.38;;
58697;SDS011;44475;53.206;-6.106;2024-02-21T05:09:47;1.63;;;1.35;;
58697;SDS011;44475;53.206;-6.106;2024-02-21T05:12:13;1.73;;;1.30;;
58697;SDS011;44475;53.206;-6.106;2024-02-21T05:14:39;1.98;;;1.40;;
58697;SDS011;44475;53.206;-6.106;2024-02-21T05:17:06;1.73;;;1.33;;
58697;SDS011;44475;53.206;-6.106;2024-02-21T05:19:32;2.80;;;1.30;;
58697;SDS011;44475;53.206;-6.106;2024-02-21T05:21:58;1.48;;;1.17;;
58697;SDS011;44475;53.206;-6.106;2024-02-21T05:24:24;1.25;;;1.15;;
58697;SDS011;44475;53.206;-6.106;2024-02-21T05:26:51;1.40;;;1.10;;
58697;SDS011;44475;53.206;-6.106;2024-02-21T05:29:17;1.80;;;1.20;;
58697;SDS011;44475;53.206;-6.106;2024-02-21T05:32:01;1.55;;;1.20;;
58697;SDS011;44475;53.206;-6.106;2024-02-21T05:34:27;1.50;;;1.23;;
58697;SDS011;44475;53.206;-6.106;2024-02-21T05:36:53;1.33;;;1.10;;
58697;SDS011;44475;53.206;-6.106;2024-02-21T05:39:20;2.03;;;1.10;;
58697;SDS011;44475;53.206;-6.106;2024-02-21T05:41:48;1.48;;;1.20;;
58697;SDS011;44475;53.206;-6.106;2024-02-21T05:44:14;1.48;;;1.10;;
58697;SDS011;44475;53.206;-6.106;2024-02-21T05:46:41;1.83;;;1.08;;
58697;SDS011;44475;53.206;-6.106;2024-02-21T05:49:07;1.30;;;1.20;;
58697;SDS011;44475;53.206;-6.106;2024-02-21T05:51:33;1.55;;;1.10;;
58697;SDS011;44475;53.206;-6.106;2024-02-21T05:53:59;1.48;;;1.10;;
58697;SDS011;44475;53.206;-6.106;2024-02-21T05:56:26;1.40;;;1.08;;
58697;SDS011;44475;53.206;-6.106;2024-02-21T05:58:52;1.35;;;1.10;;
58697;SDS011;44475;53.206;-6.106;2024-02-21T06:01:18;1.20;;;1.10;;
58697;SDS011;44475;53.206;-6.106;2024-02-21T06:03:46;1.10;;;0.95;;
58697;SDS011;44475;53.206;-6.106;2024-02-21T06:06:12;1.10;;;1.10;;
58697;SDS011;44475;53.206;-6.106;2024-02-21T06:08:39;1.30;;;1.20;;
58697;SDS011;44475;53.206;-6.106;2024-02-21T06:11:06;0.93;;;0.90;;
58697;SDS011;44475;53.206;-6.106;2024-02-21T06:13:32;2.05;;;1.23;;
58697;SDS011;44475;53.206;-6.106;2024-02-21T06:15:58;1.88;;;1.13;;
58697;SDS011;44475;53.206;-6.106;2024-02-21T06:18:24;1.00;;;1.00;;
58697;SDS011;44475;53.206;-6.106;2024-02-21T06:20:50;1.30;;;1.20;;
58697;SDS011;44475;53.206;-6.106;2024-02-21T06:23:17;1.33;;;1.10;;
58697;SDS011;44475;53.206;-6.106;2024-02-21T06:25:43;1.00;;;0.90;;
58697;SDS011;44475;53.206;-6.106;2024-02-21T06:28:09;1.30;;;1.10;;
58697;SDS011;44475;53.206;-6.106;2024-02-21T06:30:35;1.00;;;0.90;;
58697;SDS011;44475;53.206;-6.106;2024-02-21T06:33:01;1.20;;;1.00;;
58697;SDS011;44475;53.206;-6.106;2024-02-21T06:35:28;1.20;;;1.10;;
58697;SDS011;44475;53.206;-6.106;2024-02-21T06:37:54;2.35;;;1.15;;
58697;SDS011;44475;53.206;-6.106;2024-02-21T06:40:23;1.23;;;0.80;;
58697;SDS011;44475;53.206;-6.106;2024-02-21T06:43:03;1.00;;;0.93;;
58697;SDS011;44475;53.206;-6.106;2024-02-21T06:45:29;1.17;;;1.08;;
58697;SDS011;44475;53.206;-6.106;2024-02-21T06:47:55;1.02;;;0.90;;
58697;SDS011;44475;53.206;-6.106;2024-02-21T06:50:22;1.33;;;1.02;;
58697;SDS011;44475;53.206;-6.106;2024-02-21T06:52:48;1.10;;;1.00;;
58697;SDS011;44475;53.206;-6.106;2024-02-21T06:55:14;1.15;;;0.98;;
58697;SDS011;44475;53.206;-6.106;2024-02-21T06:57:43;1.30;;;1.15;;
58697;SDS011;44475;53.206;-6.106;2024-02-21T07:00:09;4.30;;;1.10;;
58697;SDS011;44475;53.206;-6.106;2024-02-21T07:02:35;3.97;;;1.13;;
58697;SDS011;44475;53.206;-6.106;2024-02-21T07:05:02;2.78;;;1.10;;
58697;SDS011;44475;53.206;-6.106;2024-02-21T07:07:28;6.93;;;1.30;;
58697;SDS011;44475;53.206;-6.106;2024-02-21T07:09:54;2.70;;;1.05;;
58697;SDS011;44475;53.206;-6.106;2024-02-21T07:12:20;1.33;;;1.00;;
58697;SDS011;44475;53.206;-6.106;2024-02-21T07:14:47;2.28;;;1.00;;
58697;SDS011;44475;53.206;-6.106;2024-02-21T07:17:13;1.40;;;1.10;;
58697;SDS011;44475;53.206;-6.106;2024-02-21T07:19:39;3.55;;;1.10;;
58697;SDS011;44475;53.206;-6.106;2024-02-21T07:22:05;2.05;;;1.25;;
58697;SDS011;44475;53.206;-6.106;2024-02-21T07:24:31;2.83;;;1.15;;
58697;SDS011;44475;53.206;-6.106;2024-02-21T07:26:57;1.35;;;1.00;;
58697;SDS011;44475;53.206;-6.106;2024-02-21T07:29:29;1.38;;;1.10;;
58697;SDS011;44475;53.206;-6.106;2024-02-21T07:31:56;2.67;;;1.05;;
58697;SDS011;44475;53.206;-6.106;2024-02-21T07:34:22;1.90;;;1.10;;
58697;SDS011;44475;53.206;-6.106;2024-02-21T07:36:48;1.02;;;0.90;;
58697;SDS011;44475;53.206;-6.106;2024-02-21T07:39:14;2.25;;;1.30;;
58697;SDS011;44475;53.206;-6.106;2024-02-21T07:41:40;2.95;;;1.00;;
58697;SDS011;44475;53.206;-6.106;2024-02-21T07:44:08;2.13;;;1.10;;
58697;SDS011;44475;53.206;-6.106;2024-02-21T07:46:34;1.42;;;0.85;;
58697;SDS011;44475;53.206;-6.106;2024-02-21T07:49:01;2.28;;;1.20;;
58697;SDS011;44475;53.206;-6.106;2024-02-21T07:51:27;1.60;;;1.15;;
58697;SDS011;44475;53.206;-6.106;2024-02-21T07:53:54;2.05;;;1.00;;
58697;SDS011;44475;53.206;-6.106;2024-02-21T07:56:21;2.22;;;1.00;;
58697;SDS011;44475;53.206;-6.106;2024-02-21T07:58:47;1.42;;;1.13;;
58697;SDS011;44475;53.206;-6.106;2024-02-21T08:01:18;5.25;;;0.90;;
58697;SDS011;44475;53.206;-6.106;2024-02-21T08:03:45;1.73;;;0.80;;
58697;SDS011;44475;53.206;-6.106;2024-02-21T08:06:11;1.10;;;1.00;;
58697;SDS011;44475;53.206;-6.106;2024-02-21T08:08:38;0.90;;;0.90;;
58697;SDS011;44475;53.206;-6.106;2024-02-21T08:11:04;0.90;;;0.90;;
58697;SDS011;44475;53.206;-6.106;2024-02-21T08:13:30;2.83;;;1.10;;
58697;SDS011;44475;53.206;-6.106;2024-02-21T08:15:56;1.42;;;0.90;;
58697;SDS011;44475;53.206;-6.106;2024-02-21T08:18:23;10.65;;;1.42;;
58697;SDS011;44475;53.206;-6.106;2024-02-21T08:20:49;11.07;;;1.60;;
58697;SDS011;44475;53.206;-6.106;2024-02-21T08:23:15;21.52;;;1.48;;
58697;SDS011;44475;53.206;-6.106;2024-02-21T08:25:42;19.13;;;1.88;;
58697;SDS011;44475;53.206;-6.106;2024-02-21T08:28:08;16.70;;;1.90;;
58697;SDS011;44475;53.206;-6.106;2024-02-21T08:30:34;6.57;;;1.50;;
58697;SDS011;44475;53.206;-6.106;2024-02-21T08:33:01;9.80;;;1.33;;
58697;SDS011;44475;53.206;-6.106;2024-02-21T08:35:28;10.05;;;1.25;;
58697;SDS011;44475;53.206;-6.106;2024-02-21T08:37:55;4.00;;;1.30;;
58697;SDS011;44475;53.206;-6.106;2024-02-21T08:40:21;3.80;;;1.58;;
58697;SDS011;44475;53.206;-6.106;2024-02-21T08:42:47;7.00;;;1.30;;
58697;SDS011;44475;53.206;-6.106;2024-02-21T08:45:14;5.15;;;1.30;;
58697;SDS011;44475;53.206;-6.106;2024-02-21T08:47:41;3.28;;;1.40;;
58697;SDS011;44475;53.206;-6.106;2024-02-21T08:50:07;6.20;;;1.30;;
58697;SDS011;44475;53.206;-6.106;2024-02-21T08:52:35;1.75;;;1.00;;
58697;SDS011;44475;53.206;-6.106;2024-02-21T08:55:01;3.70;;;1.20;;
58697;SDS011;44475;53.206;-6.106;2024-02-21T08:57:27;3.72;;;1.30;;
58697;SDS011;44475;53.206;-6.106;2024-02-21T08:59:53;6.93;;;1.20;;
58697;SDS011;44475;53.206;-6.106;2024-02-21T09:02:19;5.05;;;1.20;;
58697;SDS011;44475;53.206;-6.106;2024-02-21T09:04:45;1.33;;;1.02;;
58697;SDS011;44475;53.206;-6.106;2024-02-21T09:07:12;3.85;;;1.20;;
58697;SDS011;44475;53.206;-6.106;2024-02-21T09:09:38;2.15;;;1.20;;
58697;SDS011;44475;53.206;-6.106;2024-02-21T09:12:06;1.05;;;0.95;;
58697;SDS011;44475;53.206;-6.106;2024-02-21T09:14:32;1.77;;;1.10;;
58697;SDS011;44475;53.206;-6.106;2024-02-21T09:16:59;2.30;;;1.10;;
58697;SDS011;44475;53.206;-6.106;2024-02-21T09:19:25;3.72;;;1.20;;
58697;SDS011;44475;53.206;-6.106;2024-02-21T09:21:51;1.92;;;1.30;;
58697;SDS011;44475;53.206;-6.106;2024-02-21T09:24:17;1.80;;;1.10;;
58697;SDS011;44475;53.206;-6.106;2024-02-21T09:26:43;2.85;;;1.10;;
58697;SDS011;44475;53.206;-6.106;2024-02-21T09:29:09;2.25;;;1.05;;
58697;SDS011;44475;53.206;-6.106;2024-02-21T09:31:36;2.38;;;1.20;;
58697;SDS011;44475;53.206;-6.106;2024-02-21T09:34:04;0.80;;;0.80;;
58697;SDS011;44475;53.206;-6.106;2024-02-21T09:36:30;2.78;;;1.20;;
58697;SDS011;44475;53.206;-6.106;2024-02-21T09:38:56;3.80;;;1.20;;
58697;SDS011;44475;53.206;-6.106;2024-02-21T09:41:25;1.10;;;0.95;;
58697;SDS011;44475;53.206;-6.106;2024-02-21T09:43:55;1.45;;;1.10;;
58697;SDS011;44475;53.206;-6.106;2024-02-21T09:46:38;1.20;;;1.10;;
58697;SDS011;44475;53.206;-6.106;2024-02-21T09:49:13;1.98;;;1.10;;
58697;SDS011;44475;53.206;-6.106;2024-02-21T09:51:42;1.70;;;1.05;;
58697;SDS011;44475;53.206;-6.106;2024-02-21T09:54:09;1.58;;;1.13;;
58697;SDS011;44475;53.206;-6.106;2024-02-21T09:56:35;1.20;;;1.10;;
58697;SDS011;44475;53.206;-6.106;2024-02-21T09:59:02;1.33;;;1.00;;
58697;SDS011;44475;53.206;-6.106;2024-02-21T10:01:30;1.20;;;1.10;;
58697;SDS011;44475;53.206;-6.106;2024-02-21T10:03:57;1.80;;;1.13;;
58697;SDS011;44475;53.206;-6.106;2024-02-21T10:06:23;2.65;;;1.10;;
58697;SDS011;44475;53.206;-6.106;2024-02-21T10:08:53;1.50;;;1.00;;
58697;SDS011;44475;53.206;-6.106;2024-02-21T10:11:23;0.90;;;0.90;;
58697;SDS011;44475;53.206;-6.106;2024-02-21T10:13:49;1.13;;;1.02;;
58697;SDS011;44475;53.206;-6.106;2024-02-21T10:16:16;1.05;;;1.02;;
58697;SDS011;44475;53.206;-6.106;2024-02-21T10:18:42;1.15;;;1.02;;
58697;SDS011;44475;53.206;-6.106;2024-02-21T10:21:08;0.90;;;0.90;;
58697;SDS011;44475;53.206;-6.106;2024-02-21T10:23:41;1.45;;;1.05;;
58697;SDS011;44475;53.206;-6.106;2024-02-21T10:26:07;1.42;;;1.00;;
58697;SDS011;44475;53.206;-6.106;2024-02-21T10:28:34;0.90;;;0.90;;
58697;SDS011;44475;53.206;-6.106;2024-02-21T10:31:00;2.03;;;1.10;;
58697;SDS011;44475;53.206;-6.106;2024-02-21T10:33:26;1.10;;;1.00;;
58697;SDS011;44475;53.206;-6.106;2024-02-21T10:35:53;0.80;;;0.80;;
58697;SDS011;44475;53.206;-6.106;2024-02-21T10:38:19;0.85;;;0.85;;
58697;SDS011;44475;53.206;-6.106;2024-02-21T10:40:46;1.05;;;0.85;;
58697;SDS011;44475;53.206;-6.106;2024-02-21T10:43:14;1.08;;;0.98;;
58697;SDS011;44475;53.206;-6.106;2024-02-21T10:45:40;1.00;;;1.00;;
58697;SDS011;44475;53.206;-6.106;2024-02-21T10:50:35;0.90;;;0.90;;
58697;SDS011;44475;53.206;-6.106;2024-02-21T10:56:34;1.08;;;0.98;;
58697;SDS011;44475;53.206;-6.106;2024-02-21T10:58:41;1.10;;;0.90;;
58697;SDS011;44475;53.206;-6.106;2024-02-21T11:01:08;2.45;;;0.98;;
58697;SDS011;44475;53.206;-6.106;2024-02-21T11:03:35;0.95;;;0.90;;
58697;SDS011;44475;53.206;-6.106;2024-02-21T11:06:01;1.00;;;1.00;;
58697;SDS011;44475;53.206;-6.106;2024-02-21T11:08:30;0.82;;;0.82;;
58697;SDS011;44475;53.206;-6.106;2024-02-21T11:10:56;1.90;;;1.00;;
58697;SDS011;44475;53.206;-6.106;2024-02-21T11:14:03;0.80;;;0.80;;
58697;SDS011;44475;53.206;-6.106;2024-02-21T11:16:23;0.67;;;0.67;;
58697;SDS011;44475;53.206;-6.106;2024-02-21T11:18:49;0.80;;;0.80;;
58697;SDS011;44475;53.206;-6.106;2024-02-21T11:21:15;0.90;;;0.90;;
58697;SDS011;44475;53.206;-6.106;2024-02-21T11:23:42;0.90;;;0.90;;
58697;SDS011;44475;53.206;-6.106;2024-02-21T11:26:17;1.13;;;0.80;;
58697;SDS011;44475;53.206;-6.106;2024-02-21T11:28:44;0.98;;;0.90;;
58697;SDS011;44475;53.206;-6.106;2024-02-21T11:31:11;0.80;;;0.80;;
58697;SDS011;44475;53.206;-6.106;2024-02-21T11:33:41;1.05;;;0.80;;
58697;SDS011;44475;53.206;-6.106;2024-02-21T11:36:10;0.95;;;0.93;;
58697;SDS011;44475;53.206;-6.106;2024-02-21T11:38:37;0.90;;;0.90;;
58697;SDS011;44475;53.206;-6.106;2024-02-21T11:41:03;0.80;;;0.80;;
58697;SDS011;44475;53.206;-6.106;2024-02-21T11:43:34;0.88;;;0.88;;
58697;SDS011;44475;53.206;-6.106;2024-02-21T11:46:00;0.90;;;0.90;;
58697;SDS011;44475;53.206;-6.106;2024-02-21T11:48:28;1.00;;;0.90;;
58697;SDS011;44475;53.206;-6.106;2024-02-21T11:50:58;0.80;;;0.80;;
58697;SDS011;44475;53.206;-6.106;2024-02-21T11:53:25;0.88;;;0.88;;
58697;SDS011;44475;53.206;-6.106;2024-02-21T11:55:56;0.90;;;0.90;;
58697;SDS011;44475;53.206;-6.106;2024-02-21T11:58:22;1.10;;;1.00;;
58697;SDS011;44475;53.206;-6.106;2024-02-21T12:00:49;0.80;;;0.80;;
58697;SDS011;44475;53.206;-6.106;2024-02-21T12:03:15;0.70;;;0.70;;
58697;SDS011;44475;53.206;-6.106;2024-02-21T12:05:41;1.58;;;0.90;;
58697;SDS011;44475;53.206;-6.106;2024-02-21T12:08:07;0.80;;;0.80;;
58697;SDS011;44475;53.206;-6.106;2024-02-21T12:10:34;0.80;;;0.80;;
58697;SDS011;44475;53.206;-6.106;2024-02-21T12:13:10;1.02;;;0.85;;
58697;SDS011;44475;53.206;-6.106;2024-02-21T12:15:38;1.08;;;0.90;;
58697;SDS011;44475;53.206;-6.106;2024-02-21T12:18:05;1.27;;;0.80;;
58697;SDS011;44475;53.206;-6.106;2024-02-21T12:20:32;0.80;;;0.80;;
58697;SDS011;44475;53.206;-6.106;2024-02-21T12:23:00;0.75;;;0.75;;
58697;SDS011;44475;53.206;-6.106;2024-02-21T12:25:26;0.77;;;0.77;;
58697;SDS011;44475;53.206;-6.106;2024-02-21T12:27:52;0.80;;;0.80;;
58697;SDS011;44475;53.206;-6.106;2024-02-21T12:30:19;0.90;;;0.90;;
58697;SDS011;44475;53.206;-6.106;2024-02-21T12:32:46;0.95;;;0.90;;
58697;SDS011;44475;53.206;-6.106;2024-02-21T12:35:13;0.80;;;0.80;;
58697;SDS011;44475;53.206;-6.106;2024-02-21T12:37:40;0.75;;;0.75;;
58697;SDS011;44475;53.206;-6.106;2024-02-21T12:40:07;0.88;;;0.88;;
58697;SDS011;44475;53.206;-6.106;2024-02-21T12:42:33;0.88;;;0.80;;
58697;SDS011;44475;53.206;-6.106;2024-02-21T12:44:59;0.90;;;0.90;;
58697;SDS011;44475;53.206;-6.106;2024-02-21T12:47:25;0.70;;;0.70;;
58697;SDS011;44475;53.206;-6.106;2024-02-21T12:49:52;0.93;;;0.80;;
58697;SDS011;44475;53.206;-6.106;2024-02-21T12:52:18;1.27;;;0.90;;
58697;SDS011;44475;53.206;-6.106;2024-02-21T12:54:44;1.08;;;0.98;;
58697;SDS011;44475;53.206;-6.106;2024-02-21T12:57:12;0.80;;;0.80;;
58697;SDS011;44475;53.206;-6.106;2024-02-21T12:59:38;0.90;;;0.90;;
58697;SDS011;44475;53.206;-6.106;2024-02-21T13:02:04;2.28;;;1.00;;
58697;SDS011;44475;53.206;-6.106;2024-02-21T13:04:30;0.93;;;0.90;;
58697;SDS011;44475;53.206;-6.106;2024-02-21T13:06:56;0.80;;;0.80;;
58697;SDS011;44475;53.206;-6.106;2024-02-21T13:09:22;0.82;;;0.82;;
58697;SDS011;44475;53.206;-6.106;2024-02-21T13:11:48;0.95;;;0.90;;
58697;SDS011;44475;53.206;-6.106;2024-02-21T13:14:16;0.85;;;0.85;;
58697;SDS011;44475;53.206;-6.106;2024-02-21T13:16:42;1.00;;;1.00;;
58697;SDS011;44475;53.206;-6.106;2024-02-21T13:19:08;0.77;;;0.77;;
58697;SDS011;44475;53.206;-6.106;2024-02-21T13:21:35;1.00;;;0.88;;
58697;SDS011;44475;53.206;-6.106;2024-02-21T13:24:01;0.93;;;0.90;;
58697;SDS011;44475;53.206;-6.106;2024-02-21T13:26:27;1.00;;;1.00;;
58697;SDS011;44475;53.206;-6.106;2024-02-21T13:28:53;0.80;;;0.80;;
58697;SDS011;44475;53.206;-6.106;2024-02-21T13:31:20;1.02;;;0.93;;
58697;SDS011;44475;53.206;-6.106;2024-02-21T13:33:46;0.73;;;0.73;;
58697;SDS011;44475;53.206;-6.106;2024-02-21T13:36:12;0.98;;;0.90;;
58697;SDS011;44475;53.206;-6.106;2024-02-21T13:38:38;0.80;;;0.80;;
58697;SDS011;44475;53.206;-6.106;2024-02-21T13:41:05;0.93;;;0.90;;
58697;SDS011;44475;53.206;-6.106;2024-02-21T13:43:32;1.35;;;0.82;;
58697;SDS011;44475;53.206;-6.106;2024-02-21T13:45:59;0.90;;;0.90;;
58697;SDS011;44475;53.206;-6.106;2024-02-21T13:48:25;1.20;;;0.90;;
58697;SDS011;44475;53.206;-6.106;2024-02-21T13:50:55;0.95;;;0.80;;
58697;SDS011;44475;53.206;-6.106;2024-02-21T13:53:21;0.80;;;0.80;;
58697;SDS011;44475;53.206;-6.106;2024-02-21T13:55:48;0.93;;;0.90;;
58697;SDS011;44475;53.206;-6.106;2024-02-21T13:58:15;0.90;;;0.90;;
58697;SDS011;44475;53.206;-6.106;2024-02-21T14:00:42;0.90;;;0.90;;
58697;SDS011;44475;53.206;-6.106;2024-02-21T14:03:08;0.90;;;0.90;;
58697;SDS011;44475;53.206;-6.106;2024-02-21T14:05:35;1.15;;;0.80;;
58697;SDS011;44475;53.206;-6.106;2024-02-21T14:08:01;1.10;;;1.00;;
58697;SDS011;44475;53.206;-6.106;2024-02-21T14:10:27;1.05;;;0.95;;
58697;SDS011;44475;53.206;-6.106;2024-02-21T14:12:53;1.05;;;0.95;;
58697;SDS011;44475;53.206;-6.106;2024-02-21T14:15:20;0.80;;;0.80;;
58697;SDS011;44475;53.206;-6.106;2024-02-21T14:17:46;1.00;;;1.00;;
58697;SDS011;44475;53.206;-6.106;2024-02-21T14:20:12;1.20;;;1.00;;
58697;SDS011;44475;53.206;-6.106;2024-02-21T14:22:41;1.00;;;1.00;;
58697;SDS011;44475;53.206;-6.106;2024-02-21T14:25:07;1.15;;;1.00;;
58697;SDS011;44475;53.206;-6.106;2024-02-21T14:27:34;1.23;;;0.98;;
58697;SDS011;44475;53.206;-6.106;2024-02-21T14:30:03;1.45;;;1.00;;
58697;SDS011;44475;53.206;-6.106;2024-02-21T14:32:29;0.85;;;0.85;;
58697;SDS011;44475;53.206;-6.106;2024-02-21T14:34:55;1.15;;;0.98;;
58697;SDS011;44475;53.206;-6.106;2024-02-21T14:37:22;1.10;;;0.98;;